sensor_id;sensor_type;location;lat;lon;timestamp;pressure;altitude;pressure_sealevel;temperature;humidity
64933;BME280;51446;53.850;10.662;2023-03-04T00:00:22;101834.75;;;4.56;100.00
64933;BME280;51446;53.850;10.662;2023-03-04T00:02:47;101846.31;;;4.61;100.00
64933;BME280;51446;53.850;10.662;2023-03-04T00:05:13;101847.19;;;4.62;100.00
64933;BME280;51446;53.850;10.662;2023-03-04T00:07:38;101845.94;;;4.70;100.00
64933;BME280;51446;53.850;10.662;2023-03-04T00:10:04;101838.69;;;4.64;100.00
64933;BME280;51446;53.850;10.662;2023-03-04T00:12:29;101833.03;;;4.72;100.00
64933;BME280;51446;53.850;10.662;2023-03-04T00:14:54;101841.53;;;4.69;100.00
64933;BME280;51446;53.850;10.662;2023-03-04T00:17:20;101828.63;;;4.71;100.00
64933;BME280;51446;53.850;10.662;2023-03-04T00:19:45;101827.13;;;4.74;100.00
64933;BME280;51446;53.850;10.662;2023-03-04T00:22:10;101827.47;;;4.80;100.00
64933;BME280;51446;53.850;10.662;2023-03-04T00:24:36;101821.56;;;4.68;100.00
64933;BME280;51446;53.850;10.662;2023-03-04T00:27:01;101821.38;;;4.65;100.00
64933;BME280;51446;53.850;10.662;2023-03-04T00:29:26;101814.22;;;4.76;100.00
64933;BME280;51446;53.850;10.662;2023-03-04T00:31:51;101823.59;;;4.74;100.00
64933;BME280;51446;53.850;10.662;2023-03-04T00:34:17;101811.38;;;4.71;100.00
64933;BME280;51446;53.850;10.662;2023-03-04T00:36:42;101806.66;;;4.80;100.00
64933;BME280;51446;53.850;10.662;2023-03-04T00:39:09;101783.50;;;4.68;100.00
64933;BME280;51446;53.850;10.662;2023-03-04T00:41:35;101798.94;;;4.82;100.00
64933;BME280;51446;53.850;10.662;2023-03-04T00:44:00;101790.09;;;4.78;100.00
64933;BME280;51446;53.850;10.662;2023-03-04T00:46:25;101798.31;;;4.86;100.00
64933;BME280;51446;53.850;10.662;2023-03-04T00:48:50;101798.06;;;4.81;100.00
64933;BME280;51446;53.850;10.662;2023-03-04T00:51:16;101805.50;;;4.75;100.00
64933;BME280;51446;53.850;10.662;2023-03-04T00:53:41;101800.19;;;4.89;100.00
64933;BME280;51446;53.850;10.662;2023-03-04T00:56:06;101802.44;;;4.82;100.00
64933;BME280;51446;53.850;10.662;2023-03-04T00:58:31;101810.50;;;4.87;100.00
64933;BME280;51446;53.850;10.662;2023-03-04T01:00:57;101792.50;;;4.90;100.00
64933;BME280;51446;53.850;10.662;2023-03-04T01:03:22;101788.88;;;4.88;100.00
64933;BME280;51446;53.850;10.662;2023-03-04T01:05:48;101798.91;;;4.97;100.00
64933;BME280;51446;53.850;10.662;2023-03-04T01:08:13;101790.78;;;4.91;100.00
64933;BME280;51446;53.850;10.662;2023-03-04T01:10:39;101788.88;;;4.88;100.00
64933;BME280;51446;53.850;10.662;2023-03-04T01:13:04;101775.97;;;4.90;100.00
64933;BME280;51446;53.850;10.662;2023-03-04T01:15:29;101783.97;;;4.93;100.00
64933;BME280;51446;53.850;10.662;2023-03-04T01:17:55;101782.25;;;4.93;100.00
64933;BME280;51446;53.850;10.662;2023-03-04T01:20:20;101781.69;;;4.99;100.00
64933;BME280;51446;53.850;10.662;2023-03-04T01:22:45;101769.81;;;5.04;100.00
64933;BME280;51446;53.850;10.662;2023-03-04T01:25:11;101775.59;;;4.98;100.00
64933;BME280;51446;53.850;10.662;2023-03-04T01:27:36;101769.59;;;4.99;100.00
64933;BME280;51446;53.850;10.662;2023-03-04T01:30:02;101771.38;;;5.00;100.00
64933;BME280;51446;53.850;10.662;2023-03-04T01:32:27;101774.31;;;5.07;100.00
64933;BME280;51446;53.850;10.662;2023-03-04T01:34:53;101769.25;;;5.10;100.00
64933;BME280;51446;53.850;10.662;2023-03-04T01:37:18;101760.59;;;5.09;100.00
64933;BME280;51446;53.850;10.662;2023-03-04T01:39:43;101765.72;;;5.08;100.00
64933;BME280;51446;53.850;10.662;2023-03-04T01:42:16;101751.53;;;5.02;100.00
64933;BME280;51446;53.850;10.662;2023-03-04T01:44:43;101748.94;;;5.02;100.00
64933;BME280;51446;53.850;10.662;2023-03-04T01:47:09;101752.78;;;5.09;100.00
64933;BME280;51446;53.850;10.662;2023-03-04T01:49:34;101743.06;;;5.21;100.00
64933;BME280;51446;53.850;10.662;2023-03-04T01:52:00;101744.75;;;5.04;100.00
64933;BME280;51446;53.850;10.662;2023-03-04T01:54:25;101742.78;;;5.00;100.00
64933;BME280;51446;53.850;10.662;2023-03-04T01:56:51;101737.50;;;4.99;100.00
64933;BME280;51446;53.850;10.662;2023-03-04T01:59:19;101732.00;;;5.09;100.00
64933;BME280;51446;53.850;10.662;2023-03-04T02:01:47;101734.03;;;5.15;100.00
64933;BME280;51446;53.850;10.662;2023-03-04T02:04:15;101732.94;;;5.11;100.00
64933;BME280;51446;53.850;10.662;2023-03-04T02:06:41;101739.31;;;5.16;100.00
64933;BME280;51446;53.850;10.662;2023-03-04T02:09:07;101733.69;;;5.09;100.00
64933;BME280;51446;53.850;10.662;2023-03-04T02:11:33;101726.63;;;5.06;100.00
64933;BME280;51446;53.850;10.662;2023-03-04T02:13:59;101725.72;;;5.06;100.00
64933;BME280;51446;53.850;10.662;2023-03-04T02:16:25;101722.75;;;5.14;100.00
64933;BME280;51446;53.850;10.662;2023-03-04T02:18:50;101720.50;;;5.06;100.00
64933;BME280;51446;53.850;10.662;2023-03-04T02:21:28;101710.13;;;5.06;100.00
64933;BME280;51446;53.850;10.662;2023-03-04T02:24:04;101716.53;;;5.12;100.00
64933;BME280;51446;53.850;10.662;2023-03-04T02:26:32;101723.13;;;5.06;100.00
64933;BME280;51446;53.850;10.662;2023-03-04T02:28:59;101720.72;;;5.09;100.00
64933;BME280;51446;53.850;10.662;2023-03-04T02:31:37;101711.59;;;5.17;100.00
64933;BME280;51446;53.850;10.662;2023-03-04T02:34:11;101724.19;;;5.09;100.00
64933;BME280;51446;53.850;10.662;2023-03-04T02:36:38;101714.59;;;5.08;100.00
64933;BME280;51446;53.850;10.662;2023-03-04T02:39:12;101719.88;;;5.10;100.00
64933;BME280;51446;53.850;10.662;2023-03-04T02:41:39;101717.09;;;5.07;100.00
64933;BME280;51446;53.850;10.662;2023-03-04T02:44:15;101716.94;;;5.03;100.00
64933;BME280;51446;53.850;10.662;2023-03-04T02:46:41;101707.44;;;5.04;100.00
64933;BME280;51446;53.850;10.662;2023-03-04T02:49:06;101702.09;;;5.17;100.00
64933;BME280;51446;53.850;10.662;2023-03-04T02:51:31;101700.56;;;5.04;100.00
64933;BME280;51446;53.850;10.662;2023-03-04T02:53:56;101700.47;;;5.03;100.00
64933;BME280;51446;53.850;10.662;2023-03-04T02:56:22;101691.34;;;5.11;100.00
64933;BME280;51446;53.850;10.662;2023-03-04T02:58:47;101698.84;;;5.05;100.00
64933;BME280;51446;53.850;10.662;2023-03-04T03:01:12;101686.41;;;4.99;100.00
64933;BME280;51446;53.850;10.662;2023-03-04T03:03:37;101689.72;;;4.97;100.00
64933;BME280;51446;53.850;10.662;2023-03-04T03:06:03;101688.44;;;5.05;100.00
64933;BME280;51446;53.850;10.662;2023-03-04T03:08:28;101668.78;;;4.94;100.00
64933;BME280;51446;53.850;10.662;2023-03-04T03:10:53;101674.47;;;5.03;100.00
64933;BME280;51446;53.850;10.662;2023-03-04T03:13:19;101678.38;;;4.95;100.00
64933;BME280;51446;53.850;10.662;2023-03-04T03:15:44;101674.22;;;4.98;100.00
64933;BME280;51446;53.850;10.662;2023-03-04T03:18:09;101673.31;;;4.98;100.00
64933;BME280;51446;53.850;10.662;2023-03-04T03:20:35;101676.56;;;4.94;100.00
64933;BME280;51446;53.850;10.662;2023-03-04T03:23:00;101678.44;;;4.96;100.00
64933;BME280;51446;53.850;10.662;2023-03-04T03:25:25;101672.84;;;4.89;100.00
64933;BME280;51446;53.850;10.662;2023-03-04T03:27:50;101665.84;;;4.88;100.00
64933;BME280;51446;53.850;10.662;2023-03-04T03:30:16;101660.81;;;4.91;100.00
64933;BME280;51446;53.850;10.662;2023-03-04T03:32:41;101660.00;;;4.92;100.00
64933;BME280;51446;53.850;10.662;2023-03-04T03:35:06;101659.75;;;5.03;100.00
64933;BME280;51446;53.850;10.662;2023-03-04T03:37:32;101652.44;;;4.96;100.00
64933;BME280;51446;53.850;10.662;2023-03-04T03:39:57;101646.59;;;5.00;100.00
64933;BME280;51446;53.850;10.662;2023-03-04T03:42:22;101645.13;;;5.06;100.00
64933;BME280;51446;53.850;10.662;2023-03-04T03:44:47;101642.28;;;5.01;100.00
64933;BME280;51446;53.850;10.662;2023-03-04T03:47:14;101636.38;;;5.03;100.00
64933;BME280;51446;53.850;10.662;2023-03-04T03:49:39;101642.44;;;5.20;100.00
64933;BME280;51446;53.850;10.662;2023-03-04T03:52:05;101647.91;;;5.09;100.00
64933;BME280;51446;53.850;10.662;2023-03-04T03:54:32;101650.81;;;5.15;100.00
64933;BME280;51446;53.850;10.662;2023-03-04T03:56:57;101639.69;;;5.17;100.00
64933;BME280;51446;53.850;10.662;2023-03-04T03:59:22;101641.72;;;5.07;100.00
64933;BME280;51446;53.850;10.662;2023-03-04T04:01:48;101640.34;;;5.13;100.00
64933;BME280;51446;53.850;10.662;2023-03-04T04:04:13;101636.94;;;5.14;100.00
64933;BME280;51446;53.850;10.662;2023-03-04T04:06:38;101634.50;;;5.17;100.00
64933;BME280;51446;53.850;10.662;2023-03-04T04:09:04;101630.03;;;5.15;100.00
64933;BME280;51446;53.850;10.662;2023-03-04T04:11:29;101630.41;;;5.22;100.00
64933;BME280;51446;53.850;10.662;2023-03-04T04:13:54;101634.22;;;5.13;100.00
64933;BME280;51446;53.850;10.662;2023-03-04T04:16:19;101631.91;;;5.17;100.00
64933;BME280;51446;53.850;10.662;2023-03-04T04:18:45;101617.97;;;5.17;100.00
64933;BME280;51446;53.850;10.662;2023-03-04T04:21:10;101630.97;;;5.17;100.00
64933;BME280;51446;53.850;10.662;2023-03-04T04:23:35;101637.00;;;5.16;100.00
64933;BME280;51446;53.850;10.662;2023-03-04T04:26:01;101640.81;;;5.22;100.00
64933;BME280;51446;53.850;10.662;2023-03-04T04:28:26;101636.53;;;5.07;100.00
64933;BME280;51446;53.850;10.662;2023-03-04T04:30:51;101640.41;;;5.15;100.00
64933;BME280;51446;53.850;10.662;2023-03-04T04:33:17;101634.16;;;5.11;100.00
64933;BME280;51446;53.850;10.662;2023-03-04T04:35:42;101637.00;;;5.16;100.00
64933;BME280;51446;53.850;10.662;2023-03-04T04:38:08;101634.56;;;5.19;100.00
64933;BME280;51446;53.850;10.662;2023-03-04T04:40:33;101628.06;;;5.11;100.00
64933;BME280;51446;53.850;10.662;2023-03-04T04:42:59;101621.91;;;5.09;100.00
64933;BME280;51446;53.850;10.662;2023-03-04T04:45:24;101624.59;;;5.10;100.00
64933;BME280;51446;53.850;10.662;2023-03-04T04:47:50;101627.34;;;5.13;100.00
64933;BME280;51446;53.850;10.662;2023-03-04T04:50:16;101620.91;;;5.07;100.00
64933;BME280;51446;53.850;10.662;2023-03-04T04:52:41;101623.28;;;5.02;100.00
64933;BME280;51446;53.850;10.662;2023-03-04T04:55:06;101619.97;;;5.04;100.00
64933;BME280;51446;53.850;10.662;2023-03-04T04:57:32;101623.28;;;5.02;100.00
64933;BME280;51446;53.850;10.662;2023-03-04T04:59:58;101619.22;;;4.91;100.00
64933;BME280;51446;53.850;10.662;2023-03-04T05:02:23;101622.06;;;4.95;100.00
64933;BME280;51446;53.850;10.662;2023-03-04T05:04:49;101624.81;;;4.98;100.00
64933;BME280;51446;53.850;10.662;2023-03-04T05:07:14;101622.91;;;4.94;100.00
64933;BME280;51446;53.850;10.662;2023-03-04T05:09:39;101622.63;;;4.90;100.00
64933;BME280;51446;53.850;10.662;2023-03-04T05:12:04;101629.56;;;4.89;100.00
64933;BME280;51446;53.850;10.662;2023-03-04T05:14:30;101621.84;;;4.91;100.00
64933;BME280;51446;53.850;10.662;2023-03-04T05:16:55;101615.75;;;4.90;100.00
64933;BME280;51446;53.850;10.662;2023-03-04T05:19:20;101625.91;;;4.85;100.00
64933;BME280;51446;53.850;10.662;2023-03-04T05:21:45;101624.03;;;4.83;100.00
64933;BME280;51446;53.850;10.662;2023-03-04T05:24:11;101626.94;;;4.89;100.00
64933;BME280;51446;53.850;10.662;2023-03-04T05:26:36;101626.56;;;4.81;100.00
64933;BME280;51446;53.850;10.662;2023-03-04T05:29:02;101621.22;;;4.78;100.00
64933;BME280;51446;53.850;10.662;2023-03-04T05:31:27;101618.84;;;4.83;100.00
64933;BME280;51446;53.850;10.662;2023-03-04T05:33:52;101629.97;;;4.80;100.00
64933;BME280;51446;53.850;10.662;2023-03-04T05:36:18;101623.81;;;4.78;100.00
64933;BME280;51446;53.850;10.662;2023-03-04T05:38:43;101636.47;;;4.89;100.00
64933;BME280;51446;53.850;10.662;2023-03-04T05:41:09;101643.59;;;4.76;100.00
64933;BME280;51446;53.850;10.662;2023-03-04T05:43:35;101635.16;;;4.80;100.00
64933;BME280;51446;53.850;10.662;2023-03-04T05:46:02;101639.13;;;4.74;100.00
64933;BME280;51446;53.850;10.662;2023-03-04T05:48:27;101630.84;;;4.81;100.00
64933;BME280;51446;53.850;10.662;2023-03-04T05:50:57;101638.88;;;4.69;100.00
64933;BME280;51446;53.850;10.662;2023-03-04T05:53:23;101641.72;;;4.74;100.00
64933;BME280;51446;53.850;10.662;2023-03-04T05:55:49;101645.16;;;4.73;100.00
64933;BME280;51446;53.850;10.662;2023-03-04T05:58:15;101645.06;;;4.71;100.00
64933;BME280;51446;53.850;10.662;2023-03-04T06:00:40;101655.13;;;4.65;100.00
64933;BME280;51446;53.850;10.662;2023-03-04T06:03:05;101652.03;;;4.56;100.00
64933;BME280;51446;53.850;10.662;2023-03-04T06:05:31;101652.34;;;4.62;100.00
64933;BME280;51446;53.850;10.662;2023-03-04T06:07:56;101650.41;;;4.58;100.00
64933;BME280;51446;53.850;10.662;2023-03-04T06:10:21;101652.75;;;4.53;100.00
64933;BME280;51446;53.850;10.662;2023-03-04T06:12:46;101659.03;;;4.57;100.00
64933;BME280;51446;53.850;10.662;2023-03-04T06:15:12;101658.91;;;4.55;100.00
64933;BME280;51446;53.850;10.662;2023-03-04T06:17:39;101665.03;;;4.56;100.00
64933;BME280;51446;53.850;10.662;2023-03-04T06:20:05;101663.06;;;4.51;100.00
64933;BME280;51446;53.850;10.662;2023-03-04T06:22:31;101672.81;;;4.56;100.00
64933;BME280;51446;53.850;10.662;2023-03-04T06:24:56;101668.66;;;4.43;100.00
64933;BME280;51446;53.850;10.662;2023-03-04T06:27:22;101673.69;;;4.40;100.00
64933;BME280;51446;53.850;10.662;2023-03-04T06:29:47;101671.16;;;4.41;100.00
64933;BME280;51446;53.850;10.662;2023-03-04T06:32:12;101664.88;;;4.38;100.00
64933;BME280;51446;53.850;10.662;2023-03-04T06:34:37;101666.22;;;4.46;100.00
64933;BME280;51446;53.850;10.662;2023-03-04T06:37:03;101669.38;;;4.40;100.00
64933;BME280;51446;53.850;10.662;2023-03-04T06:39:28;101679.34;;;4.49;100.00
64933;BME280;51446;53.850;10.662;2023-03-04T06:41:53;101669.59;;;4.45;100.00
64933;BME280;51446;53.850;10.662;2023-03-04T06:44:18;101671.72;;;4.52;100.00
64933;BME280;51446;53.850;10.662;2023-03-04T06:46:44;101674.56;;;4.40;100.00
64933;BME280;51446;53.850;10.662;2023-03-04T06:49:09;101676.75;;;4.49;100.00
64933;BME280;51446;53.850;10.662;2023-03-04T06:51:35;101677.00;;;4.54;100.00
64933;BME280;51446;53.850;10.662;2023-03-04T06:54:00;101682.88;;;4.49;100.00
64933;BME280;51446;53.850;10.662;2023-03-04T06:56:25;101689.28;;;4.56;100.00
64933;BME280;51446;53.850;10.662;2023-03-04T06:58:51;101689.84;;;4.50;100.00
64933;BME280;51446;53.850;10.662;2023-03-04T07:03:43;101687.47;;;4.55;100.00
64933;BME280;51446;53.850;10.662;2023-03-04T07:06:10;101683.91;;;4.53;100.00
64933;BME280;51446;53.850;10.662;2023-03-04T07:08:35;101690.81;;;4.53;100.00
64933;BME280;51446;53.850;10.662;2023-03-04T07:11:01;101689.38;;;4.58;100.00
64933;BME280;51446;53.850;10.662;2023-03-04T07:13:26;101683.13;;;4.54;100.00
64933;BME280;51446;53.850;10.662;2023-03-04T07:15:52;101670.69;;;4.48;100.00
64933;BME280;51446;53.850;10.662;2023-03-04T07:18:17;101676.63;;;4.62;100.00
64933;BME280;51446;53.850;10.662;2023-03-04T07:20:42;101673.78;;;4.58;100.00
64933;BME280;51446;53.850;10.662;2023-03-04T07:23:08;101665.34;;;4.45;100.00
64933;BME280;51446;53.850;10.662;2023-03-04T07:25:33;101673.53;;;4.53;100.00
64933;BME280;51446;53.850;10.662;2023-03-04T07:27:58;101669.66;;;4.61;100.00
64933;BME280;51446;53.850;10.662;2023-03-04T07:30:23;101684.38;;;4.46;100.00
64933;BME280;51446;53.850;10.662;2023-03-04T07:32:49;101683.50;;;4.45;100.00
64933;BME280;51446;53.850;10.662;2023-03-04T07:35:14;101681.97;;;4.49;100.00
64933;BME280;51446;53.850;10.662;2023-03-04T07:37:39;101680.22;;;4.64;100.00
64933;BME280;51446;53.850;10.662;2023-03-04T07:40:05;101687.13;;;4.64;100.00
64933;BME280;51446;53.850;10.662;2023-03-04T07:42:32;101696.44;;;4.77;100.00
64933;BME280;51446;53.850;10.662;2023-03-04T07:44:58;101693.88;;;4.93;100.00
64933;BME280;51446;53.850;10.662;2023-03-04T07:47:25;101697.28;;;4.76;100.00
64933;BME280;51446;53.850;10.662;2023-03-04T07:49:50;101699.56;;;4.86;100.00
64933;BME280;51446;53.850;10.662;2023-03-04T07:52:16;101703.47;;;4.94;100.00
64933;BME280;51446;53.850;10.662;2023-03-04T07:54:41;101696.47;;;4.93;100.00
64933;BME280;51446;53.850;10.662;2023-03-04T07:57:06;101695.16;;;4.68;100.00
64933;BME280;51446;53.850;10.662;2023-03-04T07:59:31;101700.69;;;4.75;100.00
64933;BME280;51446;53.850;10.662;2023-03-04T08:01:57;101698.09;;;4.75;100.00
64933;BME280;51446;53.850;10.662;2023-03-04T08:04:22;101705.00;;;4.74;100.00
64933;BME280;51446;53.850;10.662;2023-03-04T08:06:47;101703.91;;;4.71;100.00
64933;BME280;51446;53.850;10.662;2023-03-04T08:09:13;101714.22;;;4.69;100.00
64933;BME280;51446;53.850;10.662;2023-03-04T08:11:39;101702.22;;;4.71;100.00
64933;BME280;51446;53.850;10.662;2023-03-04T08:14:05;101716.03;;;4.86;100.00
64933;BME280;51446;53.850;10.662;2023-03-04T08:16:30;101719.22;;;4.97;100.00
64933;BME280;51446;53.850;10.662;2023-03-04T08:18:57;101712.25;;;4.96;100.00
64933;BME280;51446;53.850;10.662;2023-03-04T08:21:25;101716.56;;;4.96;100.00
64933;BME280;51446;53.850;10.662;2023-03-04T08:23:50;101711.19;;;5.09;100.00
64933;BME280;51446;53.850;10.662;2023-03-04T08:26:22;101714.69;;;4.93;100.00
64933;BME280;51446;53.850;10.662;2023-03-04T08:28:48;101712.97;;;4.94;100.00
64933;BME280;51446;53.850;10.662;2023-03-04T08:31:16;101708.63;;;4.78;100.00
64933;BME280;51446;53.850;10.662;2023-03-04T08:33:41;101719.75;;;4.75;100.00
64933;BME280;51446;53.850;10.662;2023-03-04T08:36:07;101714.75;;;4.95;100.00
64933;BME280;51446;53.850;10.662;2023-03-04T08:38:33;101716.41;;;4.93;100.00
64933;BME280;51446;53.850;10.662;2023-03-04T08:40:58;101712.22;;;4.80;100.00
64933;BME280;51446;53.850;10.662;2023-03-04T08:43:24;101718.22;;;4.95;100.00
64933;BME280;51446;53.850;10.662;2023-03-04T08:45:52;101723.59;;;4.82;100.00
64933;BME280;51446;53.850;10.662;2023-03-04T08:48:18;101719.06;;;5.11;100.00
64933;BME280;51446;53.850;10.662;2023-03-04T08:50:44;101714.50;;;5.07;100.00
64933;BME280;51446;53.850;10.662;2023-03-04T08:53:10;101721.28;;;5.03;100.00
64933;BME280;51446;53.850;10.662;2023-03-04T08:55:40;101724.25;;;5.11;100.00
64933;BME280;51446;53.850;10.662;2023-03-04T08:58:05;101731.50;;;5.16;100.00
64933;BME280;51446;53.850;10.662;2023-03-04T09:00:31;101729.78;;;5.00;100.00
64933;BME280;51446;53.850;10.662;2023-03-04T09:02:56;101716.22;;;5.06;100.00
64933;BME280;51446;53.850;10.662;2023-03-04T09:05:22;101719.88;;;5.10;100.00
64933;BME280;51446;53.850;10.662;2023-03-04T09:07:47;101720.47;;;5.20;100.00
64933;BME280;51446;53.850;10.662;2023-03-04T09:10:12;101723.22;;;5.24;100.00
64933;BME280;51446;53.850;10.662;2023-03-04T09:12:38;101718.19;;;5.10;100.00
64933;BME280;51446;53.850;10.662;2023-03-04T09:15:04;101731.09;;;5.09;100.00
64933;BME280;51446;53.850;10.662;2023-03-04T09:17:30;101728.81;;;5.15;100.00
64933;BME280;51446;53.850;10.662;2023-03-04T09:19:56;101727.75;;;5.11;100.00
64933;BME280;51446;53.850;10.662;2023-03-04T09:22:21;101703.41;;;4.93;100.00
64933;BME280;51446;53.850;10.662;2023-03-04T09:24:46;101724.28;;;5.27;100.00
64933;BME280;51446;53.850;10.662;2023-03-04T09:27:11;101714.94;;;5.14;100.00
64933;BME280;51446;53.850;10.662;2023-03-04T09:29:37;101733.69;;;5.25;100.00
64933;BME280;51446;53.850;10.662;2023-03-04T09:32:02;101732.25;;;6.34;96.71
64933;BME280;51446;53.850;10.662;2023-03-04T09:34:27;101734.50;;;6.08;97.53
64933;BME280;51446;53.850;10.662;2023-03-04T09:36:52;101730.59;;;5.83;100.00
64933;BME280;51446;53.850;10.662;2023-03-04T09:39:18;101708.88;;;5.48;100.00
64933;BME280;51446;53.850;10.662;2023-03-04T09:41:46;101715.97;;;5.51;100.00
64933;BME280;51446;53.850;10.662;2023-03-04T09:44:33;101722.56;;;5.79;100.00
64933;BME280;51446;53.850;10.662;2023-03-04T09:47:21;101724.50;;;5.48;100.00
64933;BME280;51446;53.850;10.662;2023-03-04T09:49:55;101724.59;;;5.17;100.00
64933;BME280;51446;53.850;10.662;2023-03-04T09:55:14;101717.53;;;5.31;100.00
64933;BME280;51446;53.850;10.662;2023-03-04T09:57:59;101728.88;;;5.33;100.00
64933;BME280;51446;53.850;10.662;2023-03-04T10:00:35;101716.16;;;5.37;100.00
64933;BME280;51446;53.850;10.662;2023-03-04T10:05:40;101727.19;;;5.33;100.00
64933;BME280;51446;53.850;10.662;2023-03-04T10:08:37;101721.09;;;5.33;98.90
64933;BME280;51446;53.850;10.662;2023-03-04T10:11:14;101718.75;;;5.37;98.70
64933;BME280;51446;53.850;10.662;2023-03-04T10:13:49;101725.72;;;5.55;98.65
64933;BME280;51446;53.850;10.662;2023-03-04T10:16:19;101722.47;;;5.59;98.45
64933;BME280;51446;53.850;10.662;2023-03-04T10:19:21;101723.44;;;5.28;100.00
64933;BME280;51446;53.850;10.662;2023-03-04T10:21:51;101717.84;;;5.37;100.00
64933;BME280;51446;53.850;10.662;2023-03-04T10:24:21;101723.53;;;5.30;100.00
64933;BME280;51446;53.850;10.662;2023-03-04T10:26:52;101727.03;;;5.30;100.00
64933;BME280;51446;53.850;10.662;2023-03-04T10:29:20;101733.28;;;5.34;100.00
64933;BME280;51446;53.850;10.662;2023-03-04T10:31:46;101725.50;;;5.17;100.00
64933;BME280;51446;53.850;10.662;2023-03-04T10:34:15;101725.56;;;5.02;100.00
64933;BME280;51446;53.850;10.662;2023-03-04T10:39:33;101746.13;;;5.14;100.00
64933;BME280;51446;53.850;10.662;2023-03-04T10:44:51;101748.72;;;5.31;100.00
64933;BME280;51446;53.850;10.662;2023-03-04T10:47:16;101742.53;;;5.45;98.22
64933;BME280;51446;53.850;10.662;2023-03-04T10:49:53;101751.56;;;5.52;92.64
64933;BME280;51446;53.850;10.662;2023-03-04T10:54:53;101746.09;;;5.64;91.07
64933;BME280;51446;53.850;10.662;2023-03-04T10:57:37;101736.81;;;5.69;89.39
64933;BME280;51446;53.850;10.662;2023-03-04T11:02:41;101730.19;;;5.92;87.08
64933;BME280;51446;53.850;10.662;2023-03-04T11:05:19;101738.63;;;6.04;88.21
64933;BME280;51446;53.850;10.662;2023-03-04T11:07:49;101737.94;;;5.74;88.04
64933;BME280;51446;53.850;10.662;2023-03-04T11:10:31;101740.41;;;5.71;92.02
64933;BME280;51446;53.850;10.662;2023-03-04T11:15:49;101743.44;;;5.62;89.46
64933;BME280;51446;53.850;10.662;2023-03-04T11:18:15;101745.63;;;5.54;92.86
64933;BME280;51446;53.850;10.662;2023-03-04T11:20:46;101740.84;;;5.80;91.33
64933;BME280;51446;53.850;10.662;2023-03-04T11:23:31;101742.31;;;5.41;92.33
64933;BME280;51446;53.850;10.662;2023-03-04T11:26:02;101746.50;;;5.71;91.64
64933;BME280;51446;53.850;10.662;2023-03-04T11:28:41;101743.28;;;5.94;89.42
64933;BME280;51446;53.850;10.662;2023-03-04T11:31:15;101744.72;;;5.54;93.13
64933;BME280;51446;53.850;10.662;2023-03-04T11:33:56;101753.78;;;5.79;93.34
64933;BME280;51446;53.850;10.662;2023-03-04T11:36:35;101740.56;;;5.74;90.96
64933;BME280;51446;53.850;10.662;2023-03-04T11:39:13;101740.00;;;6.14;84.53
64933;BME280;51446;53.850;10.662;2023-03-04T11:41:48;101739.03;;;5.96;85.82
64933;BME280;51446;53.850;10.662;2023-03-04T11:44:14;101746.16;;;6.16;86.17
64933;BME280;51446;53.850;10.662;2023-03-04T11:46:50;101735.47;;;6.28;86.32
64933;BME280;51446;53.850;10.662;2023-03-04T11:52:37;101744.31;;;5.79;91.15
64933;BME280;51446;53.850;10.662;2023-03-04T11:58:38;101737.22;;;5.77;91.83
64933;BME280;51446;53.850;10.662;2023-03-04T12:01:14;101739.66;;;5.73;90.46
64933;BME280;51446;53.850;10.662;2023-03-04T12:03:58;101736.78;;;5.85;88.84
64933;BME280;51446;53.850;10.662;2023-03-04T12:07:05;101727.25;;;6.02;89.77
64933;BME280;51446;53.850;10.662;2023-03-04T12:12:41;101732.00;;;5.77;89.10
64933;BME280;51446;53.850;10.662;2023-03-04T12:15:19;101721.31;;;5.88;89.70
64933;BME280;51446;53.850;10.662;2023-03-04T12:20:40;101717.75;;;5.52;92.92
64933;BME280;51446;53.850;10.662;2023-03-04T12:23:30;101715.22;;;5.53;92.84
64933;BME280;51446;53.850;10.662;2023-03-04T12:28:46;101711.19;;;5.77;90.46
64933;BME280;51446;53.850;10.662;2023-03-04T12:31:35;101709.94;;;6.21;88.33
64933;BME280;51446;53.850;10.662;2023-03-04T12:39:39;101711.69;;;5.69;93.17
64933;BME280;51446;53.850;10.662;2023-03-04T12:45:27;101700.81;;;5.60;93.06
64933;BME280;51446;53.850;10.662;2023-03-04T12:48:02;101692.63;;;5.52;92.91
64933;BME280;51446;53.850;10.662;2023-03-04T12:50:48;101703.41;;;5.60;92.91
64933;BME280;51446;53.850;10.662;2023-03-04T12:53:42;101696.88;;;5.85;92.11
64933;BME280;51446;53.850;10.662;2023-03-04T12:58:58;101699.69;;;5.89;93.60
64933;BME280;51446;53.850;10.662;2023-03-04T13:01:32;101693.31;;;5.32;96.87
64933;BME280;51446;53.850;10.662;2023-03-04T13:04:14;101700.72;;;5.59;98.01
64933;BME280;51446;53.850;10.662;2023-03-04T13:09:33;101694.66;;;5.76;100.00
64933;BME280;51446;53.850;10.662;2023-03-04T13:12:16;101690.81;;;5.86;99.30
64933;BME280;51446;53.850;10.662;2023-03-04T13:17:52;101690.94;;;6.23;100.00
64933;BME280;51446;53.850;10.662;2023-03-04T13:20:37;101694.66;;;6.11;99.54
64933;BME280;51446;53.850;10.662;2023-03-04T13:25:36;101695.75;;;5.98;100.00
64933;BME280;51446;53.850;10.662;2023-03-04T13:36:03;101692.28;;;6.33;98.15
64933;BME280;51446;53.850;10.662;2023-03-04T13:43:50;101698.53;;;6.19;99.43
64933;BME280;51446;53.850;10.662;2023-03-04T13:51:35;101688.19;;;6.38;96.12
64933;BME280;51446;53.850;10.662;2023-03-04T13:56:36;101687.00;;;6.69;92.56
64933;BME280;51446;53.850;10.662;2023-03-04T14:04:07;101684.91;;;6.24;95.80
64933;BME280;51446;53.850;10.662;2023-03-04T14:06:40;101687.00;;;6.32;96.52
64933;BME280;51446;53.850;10.662;2023-03-04T14:09:13;101680.03;;;6.13;96.32